Time;durP1;ratioP1;P1;durP2;ratioP2;P2;SDS_P1;SDS_P2;PMS_P1;PMS_P2;Temp;Humidity;BMP_temperature;BMP_pressure;BME280_temperature;BME280_humidity;BME280_pressure;Samples;Min_cycle;Max_cycle;Signal;HPM_P1;HPM_P2
2022/10/14 00:00:14;;;;;;;;;;;9.60;99.90;;;;;;4977185;28;19956;-79
2022/10/14 00:02:40;;;;;;;;;;;9.60;99.90;;;;;;4994058;28;19924;-80
2022/10/14 00:05:06;;;;;;;;;;;9.60;99.90;;;;;;4993270;28;19957;-80
2022/10/14 00:07:31;;;;;;;;;;;9.60;99.90;;;;;;4996778;28;20364;-79
2022/10/14 00:09:57;;;;;;;;;;;9.60;99.90;;;;;;5013790;28;19906;-79
2022/10/14 00:12:22;;;;;;;;;;;9.50;99.90;;;;;;5013864;28;19959;-79
2022/10/14 00:14:48;;;;;;;;;;;9.50;99.90;;;;;;5013975;28;19901;-79
2022/10/14 00:17:13;;;;;;;;;;;9.50;99.90;;;;;;4996494;28;19913;-79
2022/10/14 00:19:39;;;;;;;;;;;9.50;99.90;;;;;;5014050;28;19901;-78
2022/10/14 00:22:04;;;;;;;;;;;9.40;99.90;;;;;;5013683;28;20715;-79
2022/10/14 00:24:30;;;;;;;;;;;9.40;99.90;;;;;;5013683;28;20408;-79
2022/10/14 00:26:55;;;;;;;;;;;9.40;99.90;;;;;;4995908;28;19916;-78
2022/10/14 00:29:21;;;;;;;;;;;9.30;99.90;;;;;;5012271;28;20345;-79
2022/10/14 00:31:46;;;;;;;;;;;9.30;99.90;;;;;;4995990;28;19913;-78
2022/10/14 00:34:14;;;;;;;;;;;9.30;99.90;;;;;;5013670;28;20030;-78
2022/10/14 00:36:40;;;;;;;;;;;9.30;99.90;;;;;;5013674;28;19994;-78
2022/10/14 00:39:06;;;;;;;;;;;9.20;99.90;;;;;;5013389;28;19905;-79
2022/10/14 00:41:32;;;;;;;;;;;9.20;99.90;;;;;;5013249;28;20378;-78
2022/10/14 00:43:58;;;;;;;;;;;9.20;99.90;;;;;;4995681;28;19948;-78
2022/10/14 00:46:24;;;;;;;;;;;9.20;99.90;;;;;;4995865;28;19999;-79
2022/10/14 00:48:51;;;;;;;;;;;9.10;99.90;;;;;;4996323;28;19905;-78
2022/10/14 00:51:17;;;;;;;;;;;9.10;99.90;;;;;;4995490;28;19915;-78
2022/10/14 00:53:43;;;;;;;;;;;9.00;99.90;;;;;;5013039;28;19925;-78
2022/10/14 00:56:09;;;;;;;;;;;9.10;99.90;;;;;;5013407;28;19936;-79
2022/10/14 00:58:35;;;;;;;;;;;9.10;99.90;;;;;;5013310;28;19955;-78
2022/10/14 01:01:01;;;;;;;;;;;9.00;99.90;;;;;;4995546;28;19992;-79
2022/10/14 01:03:26;;;;;;;;;;;9.00;99.90;;;;;;4996027;28;20357;-78
2022/10/14 01:05:57;;;;;;;;;;;8.90;99.90;;;;;;5013490;28;19912;-78
2022/10/14 01:08:29;;;;;;;;;;;8.90;99.90;;;;;;4995631;28;19920;-79
2022/10/14 01:11:06;;;;;;;;;;;8.90;99.90;;;;;;4995504;28;19929;-79
2022/10/14 01:13:33;;;;;;;;;;;8.80;99.90;;;;;;5013247;28;20356;-78
2022/10/14 01:16:19;;;;;;;;;;;8.80;99.90;;;;;;5013114;28;19945;-78
2022/10/14 01:18:44;;;;;;;;;;;8.70;99.90;;;;;;5013012;28;19905;-79
2022/10/14 01:21:19;;;;;;;;;;;8.70;99.90;;;;;;4996740;28;19905;-79
2022/10/14 01:24:00;;;;;;;;;;;8.70;99.90;;;;;;5016182;28;20416;-79
2022/10/14 01:26:37;;;;;;;;;;;8.70;99.90;;;;;;4999907;28;19955;-78
2022/10/14 01:29:06;;;;;;;;;;;8.60;99.90;;;;;;5017995;28;19948;-79
2022/10/14 01:31:32;;;;;;;;;;;8.60;99.90;;;;;;5001019;28;20252;-78
2022/10/14 01:34:00;;;;;;;;;;;8.70;99.90;;;;;;5001353;28;19912;-78
2022/10/14 01:36:34;;;;;;;;;;;8.60;99.90;;;;;;5000728;28;19943;-79
2022/10/14 01:39:03;;;;;;;;;;;8.60;99.90;;;;;;5019448;28;19971;-79
2022/10/14 01:41:31;;;;;;;;;;;8.50;99.90;;;;;;5018985;28;19964;-78
2022/10/14 01:44:00;;;;;;;;;;;8.50;99.90;;;;;;5000780;28;19924;-79
2022/10/14 01:46:26;;;;;;;;;;;8.50;99.90;;;;;;5000697;28;19905;-79
2022/10/14 01:48:55;;;;;;;;;;;8.50;99.90;;;;;;5018433;28;19905;-79
2022/10/14 01:51:29;;;;;;;;;;;8.20;99.90;;;;;;5000432;28;19910;-78
2022/10/14 01:54:02;;;;;;;;;;;8.40;99.90;;;;;;5017957;28;20412;-78
2022/10/14 01:56:30;;;;;;;;;;;8.40;99.90;;;;;;5016887;28;19909;-78
2022/10/14 01:58:56;;;;;;;;;;;8.40;99.90;;;;;;5018408;28;19905;-79
2022/10/14 02:01:22;;;;;;;;;;;8.30;99.90;;;;;;5001123;28;19928;-78
2022/10/14 02:03:48;;;;;;;;;;;8.30;99.90;;;;;;5000914;28;20289;-79
2022/10/14 02:06:21;;;;;;;;;;;8.30;99.90;;;;;;5021234;28;19912;-78
2022/10/14 02:08:53;;;;;;;;;;;8.30;99.90;;;;;;5002395;28;19909;-78
2022/10/14 02:11:20;;;;;;;;;;;8.20;99.90;;;;;;5005321;28;19909;-78
2022/10/14 02:13:53;;;;;;;;;;;8.20;99.90;;;;;;5004962;28;19905;-78
2022/10/14 02:16:23;;;;;;;;;;;8.20;99.90;;;;;;5022352;28;19905;-78
2022/10/14 02:19:09;;;;;;;;;;;8.20;99.90;;;;;;5005125;28;20364;-79
2022/10/14 02:21:44;;;;;;;;;;;8.20;99.90;;;;;;5022042;28;19911;-78
2022/10/14 02:24:13;;;;;;;;;;;8.20;99.90;;;;;;5021925;28;19967;-78
2022/10/14 02:26:39;;;;;;;;;;;8.10;99.90;;;;;;5022493;28;19951;-78
2022/10/14 02:29:05;;;;;;;;;;;8.20;99.90;;;;;;5022729;28;19965;-78
2022/10/14 02:31:31;;;;;;;;;;;8.20;99.90;;;;;;5023108;28;19909;-78
2022/10/14 02:33:58;;;;;;;;;;;8.20;99.90;;;;;;5020959;28;19906;-79
2022/10/14 02:36:24;;;;;;;;;;;8.10;99.90;;;;;;5023114;28;19901;-78
2022/10/14 02:38:51;;;;;;;;;;;8.10;99.90;;;;;;5005088;28;19959;-78
2022/10/14 02:41:18;;;;;;;;;;;8.20;99.90;;;;;;5023049;28;19909;-78
2022/10/14 02:43:44;;;;;;;;;;;8.10;99.90;;;;;;5022366;28;19921;-78
2022/10/14 02:46:10;;;;;;;;;;;8.10;99.90;;;;;;5022376;28;19905;-78
2022/10/14 02:48:35;;;;;;;;;;;8.10;99.90;;;;;;5003922;28;20000;-79
2022/10/14 02:51:01;;;;;;;;;;;8.20;99.90;;;;;;5003895;28;19908;-78
2022/10/14 02:53:26;;;;;;;;;;;8.20;99.90;;;;;;5021508;28;19918;-78
2022/10/14 02:55:52;;;;;;;;;;;8.20;99.90;;;;;;5021848;28;19968;-78
2022/10/14 02:58:17;;;;;;;;;;;8.20;99.90;;;;;;5021013;28;20000;-78
2022/10/14 03:00:43;;;;;;;;;;;8.20;99.90;;;;;;5021130;28;19912;-78
2022/10/14 03:03:08;;;;;;;;;;;8.20;99.90;;;;;;5002412;28;20331;-79
2022/10/14 03:05:34;;;;;;;;;;;8.30;99.90;;;;;;5020802;28;19909;-77
2022/10/14 03:07:59;;;;;;;;;;;8.30;99.90;;;;;;5002725;28;19948;-79
2022/10/14 03:10:25;;;;;;;;;;;8.30;99.90;;;;;;5002869;28;19906;-78
2022/10/14 03:12:50;;;;;;;;;;;8.30;99.90;;;;;;5020545;28;20337;-78
2022/10/14 03:15:16;;;;;;;;;;;8.30;99.90;;;;;;5002199;28;19902;-78
2022/10/14 03:17:42;;;;;;;;;;;8.30;99.90;;;;;;5002695;28;19909;-79
2022/10/14 03:20:13;;;;;;;;;;;8.30;99.90;;;;;;5020670;28;19903;-78
2022/10/14 03:22:38;;;;;;;;;;;8.40;99.90;;;;;;5020230;28;20016;-78
2022/10/14 03:25:04;;;;;;;;;;;8.30;99.90;;;;;;5019677;28;20048;-78
2022/10/14 03:27:30;;;;;;;;;;;8.40;99.90;;;;;;5002299;28;19912;-78
2022/10/14 03:29:56;;;;;;;;;;;8.50;99.90;;;;;;5020545;28;19909;-78
2022/10/14 03:32:21;;;;;;;;;;;8.40;99.90;;;;;;5020903;28;19906;-78
2022/10/14 03:34:47;;;;;;;;;;;8.40;99.90;;;;;;5020852;28;20031;-77
2022/10/14 03:37:16;;;;;;;;;;;8.40;99.90;;;;;;5002951;28;19995;-79
2022/10/14 03:39:43;;;;;;;;;;;8.40;99.90;;;;;;5020359;28;20337;-78
2022/10/14 03:42:09;;;;;;;;;;;8.30;99.90;;;;;;5020108;28;19912;-78
2022/10/14 03:44:34;;;;;;;;;;;8.40;99.90;;;;;;5002235;28;19921;-78
2022/10/14 03:47:00;;;;;;;;;;;8.30;99.90;;;;;;5001794;28;19933;-79
2022/10/14 03:49:25;;;;;;;;;;;8.30;99.90;;;;;;5020229;28;19916;-78
2022/10/14 03:51:51;;;;;;;;;;;8.30;99.90;;;;;;5020086;28;19909;-78
2022/10/14 03:54:16;;;;;;;;;;;8.30;99.90;;;;;;5006702;28;19914;-79
2022/10/14 03:56:42;;;;;;;;;;;8.30;99.90;;;;;;5026533;28;19917;-79
2022/10/14 03:59:07;;;;;;;;;;;8.30;99.90;;;;;;5025234;28;20020;-80
2022/10/14 04:01:33;;;;;;;;;;;8.20;99.90;;;;;;5027183;28;19905;-78
2022/10/14 04:03:58;;;;;;;;;;;8.30;99.90;;;;;;5027222;28;19975;-78
2022/10/14 04:06:24;;;;;;;;;;;8.20;99.90;;;;;;5020000;28;19906;-78
2022/10/14 04:08:50;;;;;;;;;;;8.20;99.90;;;;;;5020183;28;19905;-78
2022/10/14 04:11:16;;;;;;;;;;;8.10;99.90;;;;;;4987888;28;19906;-77
2022/10/14 04:13:41;;;;;;;;;;;8.40;99.90;;;;;;5001214;28;19906;-78
2022/10/14 04:16:08;;;;;;;;;;;8.60;99.90;;;;;;5000686;28;19978;-78
2022/10/14 04:18:34;;;;;;;;;;;8.50;99.90;;;;;;5001112;28;19909;-78
2022/10/14 04:21:00;;;;;;;;;;;8.40;99.90;;;;;;5000708;28;19906;-77
2022/10/14 04:23:25;;;;;;;;;;;8.30;99.90;;;;;;5010111;28;19913;-77
2022/10/14 04:25:51;;;;;;;;;;;8.30;99.90;;;;;;4996920;28;20016;-78
2022/10/14 04:28:16;;;;;;;;;;;8.20;99.90;;;;;;5013359;28;20253;-77
2022/10/14 04:30:42;;;;;;;;;;;8.10;99.90;;;;;;5010538;28;20378;-77
2022/10/14 04:33:08;;;;;;;;;;;8.00;99.90;;;;;;5015075;28;19941;-77
2022/10/14 04:35:33;;;;;;;;;;;8.00;99.90;;;;;;5001690;28;19905;-77
2022/10/14 04:37:59;;;;;;;;;;;8.00;99.90;;;;;;5014051;28;19910;-78
2022/10/14 04:40:25;;;;;;;;;;;8.00;99.90;;;;;;4987448;28;20349;-80
2022/10/14 04:42:55;;;;;;;;;;;8.00;99.90;;;;;;4991305;28;19977;-78
2022/10/14 04:45:20;;;;;;;;;;;8.00;99.90;;;;;;5005348;28;20344;-78
2022/10/14 04:47:46;;;;;;;;;;;7.90;99.90;;;;;;5019682;28;19933;-78
2022/10/14 04:50:11;;;;;;;;;;;7.90;99.90;;;;;;5011289;28;19918;-78
2022/10/14 04:52:37;;;;;;;;;;;7.90;99.90;;;;;;4998444;28;19957;-77
2022/10/14 04:55:02;;;;;;;;;;;7.90;99.90;;;;;;5019457;28;20440;-77
2022/10/14 04:57:28;;;;;;;;;;;7.90;99.90;;;;;;5020673;28;19909;-77
2022/10/14 04:59:53;;;;;;;;;;;7.90;99.90;;;;;;5008624;28;20342;-77
2022/10/14 05:02:19;;;;;;;;;;;7.90;99.90;;;;;;5005067;28;19917;-78
2022/10/14 05:04:44;;;;;;;;;;;7.90;99.90;;;;;;5013628;28;19913;-77
2022/10/14 05:07:19;;;;;;;;;;;7.90;99.90;;;;;;5023953;28;20358;-78
2022/10/14 05:09:46;;;;;;;;;;;7.90;99.90;;;;;;5042155;23;19989;-77
2022/10/14 05:12:15;;;;;;;;;;;7.90;99.90;;;;;;5024565;28;19917;-77
2022/10/14 05:14:41;;;;;;;;;;;7.90;99.90;;;;;;5012836;28;19932;-77
2022/10/14 05:17:07;;;;;;;;;;;7.90;99.90;;;;;;5004348;28;19917;-77
2022/10/14 05:19:32;;;;;;;;;;;7.90;99.90;;;;;;4983861;28;19906;-77
2022/10/14 05:21:58;;;;;;;;;;;7.90;99.90;;;;;;5000362;28;19902;-77
2022/10/14 05:24:23;;;;;;;;;;;7.90;99.90;;;;;;4982779;28;20266;-77
2022/10/14 05:26:50;;;;;;;;;;;7.90;99.90;;;;;;5000418;28;19910;-77
2022/10/14 05:29:15;;;;;;;;;;;8.00;99.90;;;;;;4998817;28;19959;-78
2022/10/14 05:31:41;;;;;;;;;;;8.00;99.90;;;;;;5000853;28;20365;-77
2022/10/14 05:34:06;;;;;;;;;;;8.00;99.90;;;;;;4982420;28;20353;-77
2022/10/14 05:36:32;;;;;;;;;;;7.90;99.90;;;;;;4982256;28;19917;-77
2022/10/14 05:38:57;;;;;;;;;;;7.90;99.90;;;;;;5001433;28;19938;-77
2022/10/14 05:41:24;;;;;;;;;;;7.90;99.90;;;;;;5004387;28;19906;-77
2022/10/14 05:43:49;;;;;;;;;;;7.80;99.90;;;;;;4979301;28;19977;-77
2022/10/14 05:46:15;;;;;;;;;;;7.80;99.90;;;;;;4982280;28;19909;-78
2022/10/14 05:48:40;;;;;;;;;;;8.10;99.90;;;;;;5005824;28;19953;-78
2022/10/14 05:51:06;;;;;;;;;;;8.70;99.90;;;;;;5004790;28;20365;-78
2022/10/14 05:53:31;;;;;;;;;;;8.70;99.90;;;;;;5002798;28;20281;-77
2022/10/14 05:56:01;;;;;;;;;;;9.00;99.90;;;;;;4985313;28;20365;-78
2022/10/14 05:58:26;;;;;;;;;;;8.90;99.90;;;;;;5003249;28;19913;-78
2022/10/14 06:00:52;;;;;;;;;;;8.40;99.90;;;;;;5004314;28;19901;-78
2022/10/14 06:03:17;;;;;;;;;;;8.20;99.90;;;;;;4985451;28;20589;-78
2022/10/14 06:05:43;;;;;;;;;;;8.10;99.90;;;;;;5002612;28;19957;-78
2022/10/14 06:08:09;;;;;;;;;;;8.00;99.90;;;;;;5003153;28;19917;-78
2022/10/14 06:10:34;;;;;;;;;;;8.00;99.90;;;;;;5004157;28;19917;-78
2022/10/14 06:13:00;;;;;;;;;;;8.00;99.90;;;;;;5005775;28;20349;-78
2022/10/14 06:15:27;;;;;;;;;;;8.00;99.90;;;;;;4988010;28;20004;-78
2022/10/14 06:17:52;;;;;;;;;;;8.00;99.90;;;;;;5004911;28;19913;-78
2022/10/14 06:20:18;;;;;;;;;;;8.00;99.90;;;;;;4987352;28;19906;-78
2022/10/14 06:22:44;;;;;;;;;;;8.00;99.90;;;;;;4987120;28;19925;-78
2022/10/14 06:25:10;;;;;;;;;;;8.10;99.90;;;;;;5004987;28;19906;-78
2022/10/14 06:27:35;;;;;;;;;;;8.20;99.90;;;;;;4986759;28;19972;-78
2022/10/14 06:30:01;;;;;;;;;;;8.20;99.90;;;;;;5004827;28;19909;-78
2022/10/14 06:32:26;;;;;;;;;;;8.30;99.90;;;;;;5004258;28;20353;-78
2022/10/14 06:34:51;;;;;;;;;;;8.40;99.90;;;;;;5005064;28;19906;-78
2022/10/14 06:37:17;;;;;;;;;;;8.40;99.90;;;;;;4988022;28;19906;-78
2022/10/14 06:39:43;;;;;;;;;;;8.50;99.90;;;;;;5003411;28;19912;-78
2022/10/14 06:42:09;;;;;;;;;;;8.60;99.90;;;;;;4985814;28;19960;-78
2022/10/14 06:44:35;;;;;;;;;;;8.60;99.90;;;;;;4985806;28;20328;-78
2022/10/14 06:47:00;;;;;;;;;;;8.60;99.90;;;;;;5003716;28;19910;-79
2022/10/14 06:49:26;;;;;;;;;;;8.60;99.90;;;;;;5003950;28;19905;-79
2022/10/14 06:51:51;;;;;;;;;;;8.70;99.90;;;;;;5003438;28;19932;-78
2022/10/14 06:54:17;;;;;;;;;;;8.70;99.90;;;;;;4986527;28;19913;-78
2022/10/14 06:56:42;;;;;;;;;;;8.70;99.90;;;;;;5003405;28;19910;-80
2022/10/14 06:59:08;;;;;;;;;;;8.80;99.90;;;;;;5003439;28;19906;-78
2022/10/14 07:01:33;;;;;;;;;;;8.90;99.90;;;;;;5003190;28;19906;-78
2022/10/14 07:03:59;;;;;;;;;;;9.00;99.90;;;;;;5003071;28;19961;-78
2022/10/14 07:06:24;;;;;;;;;;;9.10;99.90;;;;;;5003160;28;19905;-78
2022/10/14 07:08:50;;;;;;;;;;;9.10;99.90;;;;;;5003391;28;19937;-78
2022/10/14 07:11:15;;;;;;;;;;;9.20;99.90;;;;;;4983612;28;19968;-78
2022/10/14 07:13:41;;;;;;;;;;;9.30;99.90;;;;;;4985374;28;19909;-78
2022/10/14 07:16:06;;;;;;;;;;;9.30;99.90;;;;;;4984787;28;19918;-78
2022/10/14 07:18:32;;;;;;;;;;;9.40;99.90;;;;;;4998950;28;19910;-78
2022/10/14 07:21:02;;;;;;;;;;;9.50;99.90;;;;;;4985365;28;19905;-77
2022/10/14 07:23:27;;;;;;;;;;;9.60;99.90;;;;;;4982168;28;19956;-77
2022/10/14 07:25:55;;;;;;;;;;;9.60;99.90;;;;;;4996277;28;20327;-78
2022/10/14 07:28:20;;;;;;;;;;;9.70;99.90;;;;;;4995437;28;19992;-78
2022/10/14 07:30:54;;;;;;;;;;;9.90;99.90;;;;;;4995355;28;19960;-78
2022/10/14 07:33:20;;;;;;;;;;;10.00;99.90;;;;;;4977665;28;20354;-77
2022/10/14 07:35:45;;;;;;;;;;;10.10;99.90;;;;;;4995310;28;20002;-77
2022/10/14 07:38:11;;;;;;;;;;;10.20;99.90;;;;;;4977758;28;19909;-77
2022/10/14 07:40:36;;;;;;;;;;;10.30;99.90;;;;;;4977820;28;20284;-77
2022/10/14 07:43:02;;;;;;;;;;;10.40;99.90;;;;;;4995017;28;19914;-79
2022/10/14 07:45:33;;;;;;;;;;;10.40;99.90;;;;;;4977728;28;20004;-78
2022/10/14 07:47:59;;;;;;;;;;;10.50;99.90;;;;;;4995029;28;19912;-77
2022/10/14 07:50:24;;;;;;;;;;;10.60;99.90;;;;;;4994827;28;19992;-78
2022/10/14 07:52:50;;;;;;;;;;;10.70;99.90;;;;;;4977226;28;20376;-78
2022/10/14 07:55:15;;;;;;;;;;;10.80;99.90;;;;;;4995659;28;19905;-78
2022/10/14 07:57:41;;;;;;;;;;;10.90;99.90;;;;;;4995002;28;19906;-78
2022/10/14 08:00:07;;;;;;;;;;;;;;;;;;4995021;28;19906;-78
2022/10/14 08:02:33;;;;;;;;;;;11.30;99.90;;;;;;4976945;28;20284;-79
2022/10/14 08:04:59;;;;;;;;;;;11.70;99.90;;;;;;4994578;28;19910;-77
2022/10/14 08:07:25;;;;;;;;;;;11.70;99.90;;;;;;4977158;28;20360;-78
2022/10/14 08:09:52;;;;;;;;;;;11.90;99.90;;;;;;4994619;28;19917;-77
2022/10/14 08:12:18;;;;;;;;;;;12.00;99.90;;;;;;4994673;28;19905;-76
2022/10/14 08:14:44;;;;;;;;;;;12.20;99.90;;;;;;4994523;28;20259;-78
2022/10/14 08:17:09;;;;;;;;;;;12.40;99.90;;;;;;4994589;28;19913;-80
2022/10/14 08:19:37;;;;;;;;;;;12.40;99.90;;;;;;4977031;28;19910;-77
2022/10/14 08:22:02;;;;;;;;;;;12.40;99.90;;;;;;4994357;28;19956;-79
2022/10/14 08:24:28;;;;;;;;;;;12.40;99.90;;;;;;4976837;28;19965;-78
2022/10/14 08:26:55;;;;;;;;;;;12.40;99.90;;;;;;4994282;28;19912;-78
2022/10/14 08:29:24;;;;;;;;;;;12.30;99.90;;;;;;4976733;28;19916;-77
2022/10/14 08:31:51;;;;;;;;;;;12.40;99.90;;;;;;4994040;28;20392;-77
2022/10/14 08:34:19;;;;;;;;;;;12.50;99.90;;;;;;4976843;28;19909;-77
2022/10/14 08:36:49;;;;;;;;;;;12.60;99.90;;;;;;4976643;28;20313;-77
2022/10/14 08:39:18;;;;;;;;;;;12.80;99.90;;;;;;4994013;28;19905;-78
2022/10/14 08:42:02;;;;;;;;;;;12.90;99.90;;;;;;4976567;28;19906;-77
2022/10/14 08:44:48;;;;;;;;;;;13.00;99.90;;;;;;4993795;28;19917;-77
2022/10/14 08:47:15;;;;;;;;;;;13.30;99.90;;;;;;4993329;28;20309;-77
2022/10/14 08:49:40;;;;;;;;;;;13.50;99.90;;;;;;4976931;28;19960;-78
2022/10/14 08:52:06;;;;;;;;;;;13.60;99.90;;;;;;4976085;28;20365;-77
2022/10/14 08:54:39;;;;;;;;;;;13.60;99.90;;;;;;4993784;28;19910;-78
2022/10/14 08:57:10;;;;;;;;;;;13.80;99.90;;;;;;4976221;28;19905;-78
2022/10/14 08:59:38;;;;;;;;;;;13.90;99.90;;;;;;4994008;28;19905;-78
2022/10/14 09:02:13;;;;;;;;;;;14.10;99.90;;;;;;4993680;28;19912;-77
2022/10/14 09:04:38;;;;;;;;;;;14.20;99.90;;;;;;4993558;28;19913;-77
2022/10/14 09:07:04;;;;;;;;;;;14.40;99.90;;;;;;4993517;28;20441;-77
2022/10/14 09:09:40;;;;;;;;;;;14.50;99.90;;;;;;4993352;28;19914;-79
2022/10/14 09:12:10;;;;;;;;;;;14.60;99.90;;;;;;4993548;28;19906;-78
2022/10/14 09:14:38;;;;;;;;;;;;;;;;;;4975583;28;19949;-78
2022/10/14 09:17:10;;;;;;;;;;;14.90;99.90;;;;;;4975968;28;20321;-78
2022/10/14 09:19:38;;;;;;;;;;;15.00;99.90;;;;;;4993352;28;19906;-79
2022/10/14 09:22:10;;;;;;;;;;;15.10;99.90;;;;;;4993553;28;19909;-78
2022/10/14 09:24:36;;;;;;;;;;;15.30;99.90;;;;;;4975862;28;19977;-78
2022/10/14 09:27:06;;;;;;;;;;;15.30;99.90;;;;;;4975639;28;19906;-76
2022/10/14 09:29:52;;;;;;;;;;;15.40;99.90;;;;;;4993404;28;20349;-78
2022/10/14 09:32:28;;;;;;;;;;;15.40;99.90;;;;;;4993149;28;19913;-78
2022/10/14 09:34:56;;;;;;;;;;;;;;;;;;4975698;28;19909;-79
2022/10/14 09:37:29;;;;;;;;;;;15.80;99.90;;;;;;4992944;28;19937;-77
2022/10/14 09:39:59;;;;;;;;;;;15.90;99.90;;;;;;4992884;28;19906;-77
2022/10/14 09:42:26;;;;;;;;;;;15.90;99.90;;;;;;4975692;28;20394;-77
2022/10/14 09:45:02;;;;;;;;;;;16.00;99.90;;;;;;4992740;28;19953;-77
2022/10/14 09:47:28;;;;;;;;;;;16.10;99.90;;;;;;4993100;28;19912;-76
2022/10/14 09:49:54;;;;;;;;;;;16.30;99.90;;;;;;4993210;28;19902;-75
2022/10/14 09:52:21;;;;;;;;;;;16.40;99.90;;;;;;4992907;28;19920;-75
2022/10/14 09:54:54;;;;;;;;;;;16.50;99.90;;;;;;4993333;28;19913;-75
2022/10/14 09:57:20;;;;;;;;;;;16.60;99.90;;;;;;4993219;28;19914;-75
2022/10/14 09:59:50;;;;;;;;;;;16.60;99.90;;;;;;4992983;28;19906;-75
2022/10/14 10:02:24;;;;;;;;;;;16.60;99.90;;;;;;4993028;28;20352;-75
2022/10/14 10:04:51;;;;;;;;;;;16.70;99.90;;;;;;4991759;28;19921;-75
2022/10/14 10:07:29;;;;;;;;;;;16.80;99.90;;;;;;4992969;28;19914;-76
2022/10/14 10:10:14;;;;;;;;;;;16.90;99.90;;;;;;4985486;28;19940;-78
2022/10/14 10:12:45;;;;;;;;;;;17.10;99.90;;;;;;4992765;28;19906;-77
2022/10/14 10:15:16;;;;;;;;;;;17.30;99.90;;;;;;4992952;28;19905;-78
2022/10/14 10:17:43;;;;;;;;;;;17.50;99.90;;;;;;4992077;28;19917;-78
2022/10/14 10:20:27;;;;;;;;;;;17.50;99.90;;;;;;4992392;28;20276;-77
2022/10/14 10:22:53;;;;;;;;;;;17.60;99.90;;;;;;4992436;28;19909;-79
2022/10/14 10:25:25;;;;;;;;;;;17.50;99.90;;;;;;4993520;28;19944;-77
2022/10/14 10:27:51;;;;;;;;;;;17.50;99.90;;;;;;4995685;28;19906;-78
2022/10/14 10:30:17;;;;;;;;;;;17.60;99.90;;;;;;4994871;28;20810;-78
2022/10/14 10:32:48;;;;;;;;;;;17.60;99.90;;;;;;4994807;28;19988;-78
2022/10/14 10:35:35;;;;;;;;;;;17.60;99.90;;;;;;4996325;28;19944;-78
2022/10/14 10:38:19;;;;;;;;;;;17.70;99.90;;;;;;4985378;28;20471;-78
2022/10/14 10:41:03;;;;;;;;;;;17.80;99.90;;;;;;4995941;28;19906;-78
2022/10/14 10:43:44;;;;;;;;;;;18.10;99.90;;;;;;4994494;28;20392;-78
2022/10/14 10:46:12;;;;;;;;;;;18.20;99.90;;;;;;4995683;28;19912;-77
2022/10/14 10:49:10;;;;;;;;;;;18.30;99.90;;;;;;4995537;28;19916;-77
2022/10/14 10:51:35;;;;;;;;;;;18.40;99.70;;;;;;4962585;28;19928;-77
2022/10/14 10:54:20;;;;;;;;;;;18.50;98.70;;;;;;4994543;28;20357;-77
2022/10/14 10:56:54;;;;;;;;;;;18.60;98.30;;;;;;4994582;28;20261;-77
2022/10/14 10:59:43;;;;;;;;;;;18.70;98.00;;;;;;4995827;28;19905;-77
2022/10/14 11:02:23;;;;;;;;;;;18.80;98.30;;;;;;4995719;28;20337;-77
2022/10/14 11:05:08;;;;;;;;;;;18.90;97.70;;;;;;4994089;28;20357;-78
2022/10/14 11:13:31;;;;;;;;;;;19.20;96.10;;;;;;4995379;28;20368;-77
2022/10/14 11:16:06;;;;;;;;;;;19.20;96.30;;;;;;4995195;28;19913;-77
2022/10/14 11:18:32;;;;;;;;;;;19.10;96.10;;;;;;4995333;28;20410;-77
2022/10/14 11:21:03;;;;;;;;;;;19.10;96.30;;;;;;4995290;28;20005;-77
2022/10/14 11:23:29;;;;;;;;;;;18.90;96.60;;;;;;4994763;28;19921;-77
2022/10/14 11:26:01;;;;;;;;;;;18.80;97.40;;;;;;4994035;28;19910;-77
2022/10/14 11:28:45;;;;;;;;;;;18.70;97.70;;;;;;4995210;28;19933;-77
2022/10/14 11:31:10;;;;;;;;;;;18.50;98.00;;;;;;4994942;28;20364;-77
2022/10/14 11:33:43;;;;;;;;;;;18.40;98.10;;;;;;4995208;28;19902;-77
2022/10/14 11:36:27;;;;;;;;;;;18.40;98.50;;;;;;4993097;28;20325;-77
2022/10/14 11:39:07;;;;;;;;;;;18.40;98.50;;;;;;4994551;28;19953;-77
2022/10/14 11:41:55;;;;;;;;;;;18.40;98.20;;;;;;4994429;28;19944;-77
2022/10/14 11:44:36;;;;;;;;;;;18.40;97.90;;;;;;4993292;28;20017;-77
2022/10/14 11:47:04;;;;;;;;;;;18.30;97.90;;;;;;4993444;28;19957;-76
2022/10/14 11:49:42;;;;;;;;;;;18.30;97.30;;;;;;4994097;28;19909;-76
2022/10/14 11:52:10;;;;;;;;;;;18.40;97.40;;;;;;4993154;28;19913;-76
2022/10/14 11:54:59;;;;;;;;;;;18.40;97.40;;;;;;4994558;28;20279;-76
2022/10/14 11:57:32;;;;;;;;;;;18.50;97.70;;;;;;4994655;28;19913;-76
2022/10/14 12:00:00;;;;;;;;;;;18.50;96.80;;;;;;4994731;28;19916;-76
2022/10/14 12:02:42;;;;;;;;;;;18.50;96.80;;;;;;4994135;28;19905;-76
2022/10/14 12:05:25;;;;;;;;;;;18.50;96.30;;;;;;4993283;28;19914;-76
2022/10/14 12:08:04;;;;;;;;;;;18.50;96.30;;;;;;4994225;28;19906;-77
2022/10/14 12:10:41;;;;;;;;;;;18.50;96.10;;;;;;4994288;28;19918;-77
2022/10/14 12:13:12;;;;;;;;;;;18.50;96.10;;;;;;4994328;28;20514;-77
2022/10/14 12:15:39;;;;;;;;;;;18.50;96.50;;;;;;4994450;28;19910;-77
2022/10/14 12:18:05;;;;;;;;;;;18.90;95.50;;;;;;4994436;28;19956;-76
2022/10/14 12:20:33;;;;;;;;;;;18.80;95.50;;;;;;4993209;28;19960;-77
2022/10/14 12:22:59;;;;;;;;;;;18.90;94.90;;;;;;4992779;28;19914;-77
2022/10/14 12:25:26;;;;;;;;;;;18.90;94.50;;;;;;4994274;28;19905;-77
2022/10/14 12:27:54;;;;;;;;;;;19.00;94.40;;;;;;4992951;28;20064;-76
2022/10/14 12:30:36;;;;;;;;;;;19.00;94.70;;;;;;4994306;28;19906;-77
2022/10/14 12:33:09;;;;;;;;;;;19.00;94.20;;;;;;4992747;28;19905;-77
2022/10/14 12:35:49;;;;;;;;;;;18.90;94.50;;;;;;4994251;28;20004;-77
2022/10/14 12:38:15;;;;;;;;;;;18.80;94.50;;;;;;4994121;28;20000;-76
2022/10/14 12:40:40;;;;;;;;;;;18.70;94.30;;;;;;4994082;28;20004;-77
2022/10/14 12:43:23;;;;;;;;;;;18.70;94.50;;;;;;4992560;28;19937;-77
2022/10/14 12:45:53;;;;;;;;;;;18.70;96.50;;;;;;4993882;28;19933;-78
2022/10/14 12:48:22;;;;;;;;;;;18.60;95.20;;;;;;4991862;28;20389;-77
2022/10/14 12:50:50;;;;;;;;;;;18.70;94.30;;;;;;4992139;28;19901;-78
2022/10/14 12:53:21;;;;;;;;;;;18.80;94.40;;;;;;4993598;28;19906;-76
2022/10/14 12:55:48;;;;;;;;;;;18.90;94.10;;;;;;4993820;28;19913;-76
2022/10/14 12:58:28;;;;;;;;;;;19.00;93.70;;;;;;4993745;28;19910;-76
2022/10/14 13:00:55;;;;;;;;;;;19.10;93.30;;;;;;4993851;28;20341;-76
2022/10/14 13:03:25;;;;;;;;;;;19.10;93.20;;;;;;4993589;28;19918;-76
2022/10/14 13:05:51;;;;;;;;;;;19.20;92.80;;;;;;4993814;28;20440;-76
2022/10/14 13:08:19;;;;;;;;;;;19.30;92.20;;;;;;4992165;28;19949;-77
2022/10/14 13:10:47;;;;;;;;;;;19.30;92.20;;;;;;4993422;28;20392;-77
2022/10/14 13:13:13;;;;;;;;;;;;;;;;;;4993221;28;20372;-78
2022/10/14 13:15:39;;;;;;;;;;;;;;;;;;4992138;28;20008;-78
2022/10/14 13:18:05;;;;;;;;;;;;;;;;;;4992912;28;19959;-77
2022/10/14 13:20:31;;;;;;;;;;;;;;;;;;4993268;28;19916;-78
2022/10/14 13:22:57;;;;;;;;;;;;;;;;;;4993270;28;19906;-77
2022/10/14 13:25:22;;;;;;;;;;;;;;;;;;4993393;28;20422;-78
2022/10/14 13:27:48;;;;;;;;;;;;;;;;;;4993226;28;19920;-78
2022/10/14 13:30:14;;;;;;;;;;;;;;;;;;4993262;28;20350;-78
2022/10/14 13:32:40;;;;;;;;;;;;;;;;;;4993148;28;19960;-77
2022/10/14 13:35:06;;;;;;;;;;;;;;;;;;4993355;28;20344;-78
2022/10/14 13:37:36;;;;;;;;;;;19.00;91.20;;;;;;4993354;28;19910;-77
2022/10/14 13:40:11;;;;;;;;;;;18.90;91.40;;;;;;4993148;28;19910;-77
2022/10/14 13:42:38;;;;;;;;;;;18.80;91.90;;;;;;4991834;28;19961;-79
2022/10/14 13:45:10;;;;;;;;;;;18.70;91.70;;;;;;4991811;28;20481;-77
2022/10/14 13:47:39;;;;;;;;;;;18.80;91.80;;;;;;4991837;28;19905;-78
2022/10/14 13:50:05;;;;;;;;;;;18.80;91.60;;;;;;4993131;28;19937;-77
2022/10/14 13:52:32;;;;;;;;;;;18.80;92.10;;;;;;4992907;28;20003;-75
2022/10/14 13:55:11;;;;;;;;;;;18.90;92.40;;;;;;4993049;28;19906;-75
2022/10/14 13:57:36;;;;;;;;;;;19.00;92.00;;;;;;4993158;28;20004;-75
2022/10/14 14:00:19;;;;;;;;;;;19.00;92.20;;;;;;4993706;28;19905;-75
2022/10/14 14:02:45;;;;;;;;;;;19.00;92.20;;;;;;4996730;28;19906;-76
2022/10/14 14:05:15;;;;;;;;;;;19.00;92.60;;;;;;4996602;28;19920;-76
2022/10/14 14:07:40;;;;;;;;;;;;;;;;;;4996802;28;19997;-76
2022/10/14 14:10:08;;;;;;;;;;;19.00;92.50;;;;;;4994986;28;20008;-75
2022/10/14 14:12:34;;;;;;;;;;;18.90;92.70;;;;;;4996343;28;19910;-76
2022/10/14 14:14:59;;;;;;;;;;;18.90;92.80;;;;;;4996318;28;20004;-76
2022/10/14 14:17:26;;;;;;;;;;;18.80;93.00;;;;;;4995928;28;20008;-76
2022/10/14 14:19:51;;;;;;;;;;;18.70;93.10;;;;;;4996082;28;19906;-78
2022/10/14 14:22:17;;;;;;;;;;;18.60;93.40;;;;;;4995645;28;19909;-78
2022/10/14 14:24:43;;;;;;;;;;;18.50;93.50;;;;;;4995785;28;20276;-77
2022/10/14 14:27:17;;;;;;;;;;;18.40;93.70;;;;;;4996178;28;19995;-78
2022/10/14 14:29:44;;;;;;;;;;;18.30;93.90;;;;;;4995988;28;20276;-78
2022/10/14 14:32:13;;;;;;;;;;;18.20;94.30;;;;;;4996159;28;20496;-78
2022/10/14 14:34:41;;;;;;;;;;;18.10;94.70;;;;;;4996049;28;20484;-78
2022/10/14 14:37:11;;;;;;;;;;;18.10;95.10;;;;;;4995139;28;19956;-78
2022/10/14 14:39:36;;;;;;;;;;;18.00;95.60;;;;;;4995119;28;19912;-78
2022/10/14 14:42:02;;;;;;;;;;;17.90;95.60;;;;;;4996127;28;19905;-78